Time;durP1;ratioP1;P1;durP2;ratioP2;P2;SDS_P1;SDS_P2;PMS_P1;PMS_P2;Temp;Humidity;BMP_temperature;BMP_pressure;BME280_temperature;BME280_humidity;BME280_pressure;Samples;Min_cycle;Max_cycle;Signal;HPM_P1;HPM_P2
2022/06/08 00:00:59;;;;;;;;;;;;;;;;;;5034530;28;19917;-42
2022/06/08 00:03:27;;;;;;;;;;;;;;;;;;5034562;28;19924;-43
2022/06/08 00:05:52;;;;;;;;;;;;;;;;;;5034521;28;20010;-43
2022/06/08 00:08:19;;;;;;;;;;;;;;;;;;5034475;28;19916;-42
2022/06/08 00:10:44;;;;;;;;;;;;;;;;;;5034554;28;19909;-43
2022/06/08 00:13:09;;;;;;;;;;;;;;;;;;5034417;28;19909;-43
2022/06/08 00:15:37;;;;;;;;;;;;;;;;;;5034463;28;20261;-42
2022/06/08 00:18:02;;;;;;;;;;;;;;;;;;5034358;28;19909;-43
2022/06/08 00:20:27;;;;;;;;;;;;;;;;;;5034211;28;19909;-43
2022/06/08 00:22:53;;;;;;;;;;;;;;;;;;5034381;28;19983;-44
2022/06/08 00:25:20;;;;;;;;;;;;;;;;;;5034388;28;19913;-44
2022/06/08 00:27:48;;;;;;;;;;;;;;;;;;5034362;28;20379;-43
2022/06/08 00:30:14;;;;;;;;;;;;;;;;;;5051937;28;19963;-42
2022/06/08 00:32:42;;;;;;;;;;;;;;;;;;5038337;28;19916;-43
2022/06/08 00:35:07;;;;;;;;;;;;;;;;;;5038258;28;19979;-42
2022/06/08 00:37:33;;;;;;;;;;;;;;;;;;5038219;28;20360;-43
2022/06/08 00:39:59;;;;;;;;;;;;;;;;;;5038294;28;19999;-42
2022/06/08 00:42:27;;;;;;;;;;;;;;;;;;5037947;28;19960;-42
2022/06/08 00:44:52;;;;;;;;;;;;;;;;;;5038027;28;20379;-45
2022/06/08 00:47:18;;;;;;;;;;;;;;;;;;5038032;28;19913;-45
2022/06/08 00:49:43;;;;;;;;;;;;;;;;;;5038325;28;20357;-44
2022/06/08 00:52:10;;;;;;;;;;;;;;;;;;5037790;28;19952;-44
2022/06/08 00:54:35;;;;;;;;;;;;;;;;;;5038009;28;19909;-44
2022/06/08 00:57:03;;;;;;;;;;;;;;;;;;5037839;28;19931;-44
2022/06/08 00:59:28;;;;;;;;;;;;;;;;;;5037980;28;19909;-44
2022/06/08 01:01:53;;;;;;;;;;;;;;;;;;5037891;28;19915;-43
2022/06/08 01:04:18;;;;;;;;;;;;;;;;;;5037726;28;20026;-44
2022/06/08 01:06:43;;;;;;;;;;;;;;;;;;5037619;28;19913;-44
2022/06/08 01:09:11;;;;;;;;;;;;;;;;;;5037688;28;20386;-44
2022/06/08 01:11:38;;;;;;;;;;;;;;;;;;5037718;28;20368;-44
2022/06/08 01:14:04;;;;;;;;;;;;;;;;;;5037659;28;20418;-43
2022/06/08 01:16:30;;;;;;;;;;;;;;;;;;5037581;28;19909;-44
2022/06/08 01:18:58;;;;;;;;;;;;;;;;;;5037494;28;20335;-45
2022/06/08 01:21:24;;;;;;;;;;;;;;;;;;5052670;28;20329;-45
2022/06/08 01:23:49;;;;;;;;;;;;;;;;;;5037391;28;19919;-44
2022/06/08 01:26:15;;;;;;;;;;;;;;;;;;5037189;28;19948;-45
2022/06/08 01:28:43;;;;;;;;;;;;;;;;;;5037387;28;19921;-44
2022/06/08 01:31:08;;;;;;;;;;;;;;;;;;5037291;28;19917;-43
2022/06/08 01:33:34;;;;;;;;;;;;;;;;;;5037113;28;19909;-44
2022/06/08 01:36:00;;;;;;;;;;;;;;;;;;5037044;28;19916;-44
2022/06/08 01:38:28;;;;;;;;;;;;;;;;;;5037020;28;20386;-44
2022/06/08 01:40:54;;;;;;;;;;;;;;;;;;5036734;28;20320;-44
2022/06/08 01:43:21;;;;;;;;;;;;;;;;;;5036878;28;20284;-45
2022/06/08 01:45:48;;;;;;;;;;;;;;;;;;5037046;28;19916;-44
2022/06/08 01:48:13;;;;;;;;;;;;;;;;;;5037061;28;19917;-44
2022/06/08 01:50:38;;;;;;;;;;;;;;;;;;5037092;28;19909;-45
2022/06/08 01:53:03;;;;;;;;;;;;;;;;;;5036937;28;19909;-44
2022/06/08 01:55:30;;;;;;;;;;;;;;;;;;5036728;28;19917;-44
2022/06/08 01:57:57;;;;;;;;;;;;;;;;;;5036738;28;19909;-44
2022/06/08 02:00:24;;;;;;;;;;;;;;;;;;5036617;28;20364;-44
2022/06/08 02:02:50;;;;;;;;;;;;;;;;;;5036620;28;19960;-44
2022/06/08 02:05:16;;;;;;;;;;;;;;;;;;5036741;28;20368;-44
2022/06/08 02:07:44;;;;;;;;;;;;;;;;;;5036588;28;19951;-44
2022/06/08 02:10:09;;;;;;;;;;;;;;;;;;5036601;28;20364;-44
2022/06/08 02:12:37;;;;;;;;;;;;;;;;;;5036465;28;20047;-45
2022/06/08 02:15:03;;;;;;;;;;;;;;;;;;5036534;28;20074;-44
2022/06/08 02:17:28;;;;;;;;;;;;;;;;;;5036544;28;19916;-44
2022/06/08 02:19:56;;;;;;;;;;;;;;;;;;5036214;28;19909;-44
2022/06/08 02:22:24;;;;;;;;;;;;;;;;;;5036201;28;19905;-44
2022/06/08 02:24:49;;;;;;;;;;;;;;;;;;5036289;28;19916;-45
2022/06/08 02:27:14;;;;;;;;;;;;;;;;;;5036218;28;19909;-44
2022/06/08 02:29:40;;;;;;;;;;;;;;;;;;5036301;28;19909;-44
2022/06/08 02:34:27;;;;;;;;;;;;;;;;;;5036198;28;19915;-43
2022/06/08 02:34:50;;;;;;;;;;;;;;;;;;5036105;28;19915;-43
2022/06/08 02:37:17;;;;;;;;;;;;;;;;;;5035903;28;20400;-44
2022/06/08 02:39:43;;;;;;;;;;;;;;;;;;5035986;28;19917;-44
2022/06/08 02:42:11;;;;;;;;;;;;;;;;;;5035638;28;19917;-45
2022/06/08 02:44:36;;;;;;;;;;;;;;;;;;5035881;28;19921;-44
2022/06/08 02:47:04;;;;;;;;;;;;;;;;;;5035794;28;19969;-44
2022/06/08 02:49:32;;;;;;;;;;;;;;;;;;5035723;28;20357;-45
2022/06/08 02:51:58;;;;;;;;;;;;;;;;;;5035149;28;19941;-44
2022/06/08 02:54:23;;;;;;;;;;;;;;;;;;5035878;28;20430;-45
2022/06/08 02:56:51;;;;;;;;;;;;;;;;;;5035682;28;20340;-44
2022/06/08 02:59:17;;;;;;;;;;;;;;;;;;5035620;28;20279;-44
2022/06/08 03:01:43;;;;;;;;;;;;;;;;;;5035606;28;19931;-44
2022/06/08 03:04:11;;;;;;;;;;;;;;;;;;5035568;28;19913;-44
2022/06/08 03:06:37;;;;;;;;;;;;;;;;;;5035471;28;19913;-44
2022/06/08 03:09:02;;;;;;;;;;;;;;;;;;5035430;28;19962;-44
2022/06/08 03:11:30;;;;;;;;;;;;;;;;;;5035415;28;19952;-44
2022/06/08 03:13:55;;;;;;;;;;;;;;;;;;5035371;28;19964;-44
2022/06/08 03:16:23;;;;;;;;;;;;;;;;;;5035261;28;20376;-44
2022/06/08 03:18:48;;;;;;;;;;;;;;;;;;5050577;28;19909;-44
2022/06/08 03:21:13;;;;;;;;;;;;;;;;;;5035092;28;19917;-45
2022/06/08 03:23:42;;;;;;;;;;;;;;;;;;5035159;28;20283;-45
2022/06/08 03:26:10;;;;;;;;;;;;;;;;;;5035114;28;20376;-44
2022/06/08 03:28:35;;;;;;;;;;;;;;;;;;5035210;28;19913;-45
2022/06/08 03:31:01;;;;;;;;;;;;;;;;;;5035470;28;19910;-44
2022/06/08 03:33:26;;;;;;;;;;;;;;;;;;5035066;28;19945;-45
2022/06/08 03:35:51;;;;;;;;;;;;;;;;;;5034982;28;20345;-44
2022/06/08 03:38:16;;;;;;;;;;;;;;;;;;5034954;28;19913;-45
2022/06/08 03:40:44;;;;;;;;;;;;;;;;;;5034674;28;19955;-44
2022/06/08 03:43:10;;;;;;;;;;;;;;;;;;5034864;28;20364;-44
2022/06/08 03:45:35;;;;;;;;;;;;;;;;;;5034880;28;19909;-45
2022/06/08 03:48:02;;;;;;;;;;;;;;;;;;5034784;28;19979;-44
2022/06/08 03:50:27;;;;;;;;;;;;;;;;;;5035003;28;19917;-45
2022/06/08 03:52:52;;;;;;;;;;;;;;;;;;5034827;28;19909;-43
2022/06/08 03:55:20;;;;;;;;;;;;;;;;;;5034571;28;19909;-43
2022/06/08 03:57:45;;;;;;;;;;;;;;;;;;5034739;28;19909;-43
2022/06/08 04:00:12;;;;;;;;;;;;;;;;;;5034673;28;19920;-45
2022/06/08 04:02:37;;;;;;;;;;;;;;;;;;5034599;28;20323;-42
2022/06/08 04:05:03;;;;;;;;;;;;;;;;;;5034606;28;19909;-42
2022/06/08 04:07:31;;;;;;;;;;;;;;;;;;5034618;28;20352;-45
2022/06/08 04:09:56;;;;;;;;;;;;;;;;;;5034518;28;20004;-42
2022/06/08 04:12:22;;;;;;;;;;;;;;;;;;5034557;28;19948;-43
2022/06/08 04:14:47;;;;;;;;;;;;;;;;;;5034387;28;19913;-43
2022/06/08 04:17:13;;;;;;;;;;;;;;;;;;5034492;28;20370;-43
2022/06/08 04:19:39;;;;;;;;;;;;;;;;;;5034419;28;19963;-43
2022/06/08 04:22:04;;;;;;;;;;;;;;;;;;5034249;28;20315;-43
2022/06/08 04:24:32;;;;;;;;;;;;;;;;;;5034247;28;20363;-42
2022/06/08 04:26:57;;;;;;;;;;;;;;;;;;5034494;28;19916;-42
2022/06/08 04:29:22;;;;;;;;;;;;;;;;;;5034386;28;19909;-43
2022/06/08 04:31:47;;;;;;;;;;;;;;;;;;5034285;28;19913;-43
2022/06/08 04:34:13;;;;;;;;;;;;;;;;;;5034231;28;19916;-43
2022/06/08 04:36:41;;;;;;;;;;;;;;;;;;5034304;28;19947;-43
2022/06/08 04:39:09;;;;;;;;;;;;;;;;;;5034553;28;19909;-44
2022/06/08 04:41:36;;;;;;;;;;;;;;;;;;5034179;28;19917;-44
2022/06/08 04:44:03;;;;;;;;;;;;;;;;;;5034147;28;19921;-43
2022/06/08 04:46:28;;;;;;;;;;;;;;;;;;5034251;28;19916;-44
2022/06/08 04:48:53;;;;;;;;;;;;;;;;;;5034125;28;20357;-44
2022/06/08 04:51:19;;;;;;;;;;;;;;;;;;5034188;28;20356;-43
2022/06/08 04:53:47;;;;;;;;;;;;;;;;;;5033962;28;20352;-43
2022/06/08 04:56:14;;;;;;;;;;;;;;;;;;5034109;28;19913;-43
2022/06/08 04:58:39;;;;;;;;;;;;;;;;;;5034032;28;19917;-44
2022/06/08 05:01:06;;;;;;;;;;;;;;;;;;5034057;28;19909;-44
2022/06/08 05:03:34;;;;;;;;;;;;;;;;;;5034025;28;19913;-43
2022/06/08 05:06:02;;;;;;;;;;;;;;;;;;5034075;28;20368;-43
2022/06/08 05:08:30;;;;;;;;;;;;;;;;;;5034032;28;19913;-43
2022/06/08 05:10:57;;;;;;;;;;;;;;;;;;5034087;28;19979;-44
2022/06/08 05:13:25;;;;;;;;;;;;;;;;;;5033919;28;20379;-44
2022/06/08 05:15:53;;;;;;;;;;;;;;;;;;5035491;28;19963;-43
2022/06/08 05:18:20;;;;;;;;;;;;;;;;;;5037444;28;19920;-45
2022/06/08 05:20:45;;;;;;;;;;;;;;;;;;5037637;28;19910;-43
2022/06/08 05:23:14;;;;;;;;;;;;;;;;;;5037280;28;19920;-44
2022/06/08 05:25:41;;;;;;;;;;;;;;;;;;5037467;28;19913;-44
2022/06/08 05:28:07;;;;;;;;;;;;;;;;;;5044094;28;19908;-43
2022/06/08 05:30:32;;;;;;;;;;;;;;;;;;5051319;28;19920;-43
2022/06/08 05:32:57;;;;;;;;;;;;;;;;;;5045101;28;19917;-43
2022/06/08 05:35:25;;;;;;;;;;;;;;;;;;5047857;28;19913;-43
2022/06/08 05:37:53;;;;;;;;;;;;;;;;;;5051567;28;19913;-44
2022/06/08 05:40:18;;;;;;;;;;;;;;;;;;5051296;28;19921;-44
2022/06/08 05:42:45;;;;;;;;;;;;;;;;;;5047881;28;19925;-45
2022/06/08 05:45:11;;;;;;;;;;;;;;;;;;5035857;28;19912;-44
2022/06/08 05:47:36;;;;;;;;;;;;;;;;;;5042399;28;19913;-46
2022/06/08 05:50:01;;;;;;;;;;;;;;;;;;5039136;28;20449;-43
2022/06/08 05:52:26;;;;;;;;;;;;;;;;;;5040115;28;19959;-43
2022/06/08 05:54:51;;;;;;;;;;;;;;;;;;5041471;28;20543;-43
2022/06/08 05:57:16;;;;;;;;;;;;;;;;;;5038577;28;19936;-44
2022/06/08 05:59:42;;;;;;;;;;;;;;;;;;5033522;28;20719;-43
2022/06/08 06:02:07;;;;;;;;;;;;;;;;;;5017788;28;20022;-44
2022/06/08 06:04:32;;;;;;;;;;;;;;;;;;5012286;28;19931;-43
2022/06/08 06:06:57;;;;;;;;;;;;;;;;;;5018155;28;19921;-44
2022/06/08 06:09:22;;;;;;;;;;;;;;;;;;5009433;28;19921;-45
2022/06/08 06:11:49;;;;;;;;;;;;;;;;;;4992471;28;19930;-44
2022/06/08 06:14:14;;;;;;;;;;;;;;;;;;4961581;28;20581;-44
2022/06/08 06:16:39;;;;;;;;;;;;;;;;;;4939589;28;19931;-44
2022/06/08 06:19:04;;;;;;;;;;;;;;;;;;4911192;28;19925;-44
2022/06/08 06:21:29;;;;;;;;;;;;;;;;;;4871330;28;20609;-44
2022/06/08 06:23:54;;;;;;;;;;;;;;;;;;4776876;28;21404;-44
2022/06/08 06:26:20;;;;;;;;;;;;;;;;;;4724389;28;21648;-44
2022/06/08 06:28:45;;;;;;;;;;;;;;;;;;4666622;28;20410;-44
2022/06/08 06:31:10;;;;;;;;;;;;;;;;;;4716248;28;19920;-44
2022/06/08 06:33:35;;;;;;;;;;;;;;;;;;4732039;28;21639;-45
2022/06/08 06:36:01;;;;;;;;;;;;;;;;;;4803524;28;19975;-44
2022/06/08 06:38:26;;;;;;;;;;;;;;;;;;4839881;28;23446;-44
2022/06/08 06:40:51;;;;;;;;;;;;;;;;;;4832444;28;20627;-44
2022/06/08 06:43:17;;;;;;;;;;;;;;;;;;4830726;28;19974;-44
2022/06/08 06:45:42;;;;;;;;;;;;;;;;;;4851225;28;19920;-43
2022/06/08 06:48:08;;;;;;;;;;;;;;;;;;4864231;28;19920;-44
2022/06/08 06:50:33;;;;;;;;;;;;;;;;;;4861955;28;19987;-45
2022/06/08 06:52:59;;;;;;;;;;;;;;;;;;4844459;28;20771;-44
2022/06/08 06:55:24;;;;;;;;;;;;;;;;;;4811925;28;20874;-44
2022/06/08 06:57:49;;;;;;;;;;;;;;;;;;4809761;28;20528;-44
2022/06/08 07:00:16;;;;;;;;;;;;;;;;;;4832339;28;26775;-44
2022/06/08 07:02:41;;;;;;;;;;;;;;;;;;4813690;28;27781;-44
2022/06/08 07:05:06;;;;;;;;;;;;;;;;;;4801572;28;29114;-44
2022/06/08 07:07:31;;;;;;;;;;;;;;;;;;4754309;28;22537;-44
2022/06/08 07:09:56;;;;;;;;;;;;;;;;;;4761100;28;23655;-44
2022/06/08 07:12:22;;;;;;;;;;;;;;;;;;4721033;28;36001;-45
2022/06/08 07:14:47;;;;;;;;;;;;;;;;;;4679419;28;36715;-44
2022/06/08 07:17:12;;;;;;;;;;;;;;;;;;4602418;28;23816;-45
2022/06/08 07:19:37;;;;;;;;;;;;;;;;;;4489568;28;42788;-47
2022/06/08 07:22:02;;;;;;;;;;;;;;;;;;4400843;28;22627;-47
2022/06/08 07:24:32;;;;;;;;;;;;;;;;;;4449445;28;42314;-48
2022/06/08 07:26:58;;;;;;;;;;;;;;;;;;4635281;28;21490;-47
2022/06/08 07:29:23;;;;;;;;;;;;;;;;;;4734532;28;34300;-47
2022/06/08 07:31:48;;;;;;;;;;;;;;;;;;4744319;28;19969;-48
2022/06/08 07:34:14;;;;;;;;;;;;;;;;;;4769178;28;39263;-47
2022/06/08 07:36:39;;;;;;;;;;;;;;;;;;4761741;28;42046;-47
2022/06/08 07:39:04;;;;;;;;;;;;;;;;;;4758941;28;37594;-48
2022/06/08 07:41:29;;;;;;;;;;;;;;;;;;4737211;28;33387;-49
2022/06/08 07:43:56;;;;;;;;;;;;;;;;;;4756713;28;20648;-48
2022/06/08 07:46:21;;;;;;;;;;;;;;;;;;4768309;28;37927;-48
2022/06/08 07:51:30;;;;;;;;;;;;;;;;;;4741435;28;42411;-47
2022/06/08 07:53:55;;;;;;;;;;;;;;;;;;4686012;28;23883;-47
2022/06/08 07:56:21;;;;;;;;;;;;;;;;;;4680834;28;35012;-48
2022/06/08 07:58:48;;;;;;;;;;;;;;;;;;4667067;28;21183;-47
2022/06/08 08:01:13;;;;;;;;;;;;;;;;;;4727603;28;22441;-48
2022/06/08 08:03:38;;;;;;;;;;;;;;;;;;4736498;28;26200;-47
2022/06/08 08:06:03;;;;;;;;;;;;;;;;;;4767975;28;31469;-45
2022/06/08 08:08:29;;;;;;;;;;;;;;;;;;4692865;28;41213;-44
2022/06/08 08:10:54;;;;;;;;;;;;;;;;;;4550768;28;42520;-43
2022/06/08 08:13:19;;;;;;;;;;;;;;;;;;4456010;28;20495;-44
2022/06/08 08:15:44;;;;;;;;;;;;;;;;;;4589278;28;21189;-46
2022/06/08 08:18:09;;;;;;;;;;;;;;;;;;4678838;28;19991;-45
2022/06/08 08:20:34;;;;;;;;;;;;;;;;;;4737327;28;21350;-46
2022/06/08 08:23:00;;;;;;;;;;;;;;;;;;4730638;28;25979;-46
2022/06/08 08:25:25;;;;;;;;;;;;;;;;;;4754928;28;21335;-46
2022/06/08 08:27:50;;;;;;;;;;;;;;;;;;4654438;28;22315;-43
2022/06/08 08:30:15;;;;;;;;;;;;;;;;;;4509183;28;31691;-43
2022/06/08 08:32:40;;;;;;;;;;;;;;;;;;4506479;22;33510;-44
2022/06/08 08:35:05;;;;;;;;;;;;;;;;;;4594583;28;46478;-45
2022/06/08 08:37:30;;;;;;;;;;;;;;;;;;4640577;28;27893;-44
2022/06/08 08:39:56;;;;;;;;;;;;;;;;;;4720699;28;21534;-44
2022/06/08 08:42:21;;;;;;;;;;;;;;;;;;4782706;28;19974;-44
2022/06/08 08:44:46;;;;;;;;;;;;;;;;;;4716749;28;26143;-44
2022/06/08 08:47:11;;;;;;;;;;;;;;;;;;4659044;28;22754;-45
2022/06/08 08:49:36;;;;;;;;;;;;;;;;;;4682828;28;33371;-45
2022/06/08 08:52:01;;;;;;;;;;;;;;;;;;4687225;28;36306;-45
2022/06/08 08:54:27;;;;;;;;;;;;;;;;;;4710891;28;37232;-45
2022/06/08 08:56:52;;;;;;;;;;;;;;;;;;4693641;28;35575;-45
2022/06/08 08:59:17;;;;;;;;;;;;;;;;;;4670945;28;31532;-45
2022/06/08 09:01:42;;;;;;;;;;;;;;;;;;4647316;28;40573;-45
2022/06/08 09:04:07;;;;;;;;;;;;;;;;;;4655632;28;38558;-46
2022/06/08 09:06:33;;;;;;;;;;;;;;;;;;4643150;28;32805;-45
2022/06/08 09:09:04;;;;;;;;;;;;;;;;;;4607210;28;36287;-45
2022/06/08 09:11:29;;;;;;;;;;;;;;;;;;4657723;28;39257;-45
2022/06/08 09:13:54;;;;;;;;;;;;;;;;;;4633385;28;42406;-42
2022/06/08 09:16:20;;;;;;;;;;;;;;;;;;4612249;28;41026;-45
2022/06/08 09:18:45;;;;;;;;;;;;;;;;;;4606276;28;38210;-46
2022/06/08 09:21:10;;;;;;;;;;;;;;;;;;4433918;28;39073;-45
2022/06/08 09:23:35;;;;;;;;;;;;;;;;;;4528313;28;22200;-45
2022/06/08 09:26:00;;;;;;;;;;;;;;;;;;4525966;28;25497;-45
2022/06/08 09:28:26;;;;;;;;;;;;;;;;;;4605045;28;37199;-45
2022/06/08 09:30:52;;;;;;;;;;;;;;;;;;4668357;28;35887;-45
2022/06/08 09:33:17;;;;;;;;;;;;;;;;;;4711731;28;29027;-44
2022/06/08 09:35:42;;;;;;;;;;;;;;;;;;4750556;28;34209;-45
2022/06/08 09:38:08;;;;;;;;;;;;;;;;;;4722934;28;28311;-44
2022/06/08 09:40:36;;;;;;;;;;;;;;;;;;4719939;28;38154;-45
2022/06/08 09:43:01;;;;;;;;;;;;;;;;;;4716332;28;43271;-44
2022/06/08 09:45:27;;;;;;;;;;;;;;;;;;4690173;28;26326;-45
2022/06/08 09:53:20;;;;;;;;;;;;;;;;;;4725063;28;34576;-44
2022/06/08 09:55:45;;;;;;;;;;;;;;;;;;4728701;28;32198;-45
2022/06/08 09:58:10;;;;;;;;;;;;;;;;;;4707945;28;38569;-45
2022/06/08 10:00:35;;;;;;;;;;;;;;;;;;4722386;28;24801;-43
2022/06/08 10:03:00;;;;;;;;;;;;;;;;;;4687276;28;28012;-45
2022/06/08 10:05:26;;;;;;;;;;;;;;;;;;4698047;28;20559;-47
2022/06/08 10:07:51;;;;;;;;;;;;;;;;;;4683620;28;20705;-45
2022/06/08 10:10:17;;;;;;;;;;;;;;;;;;4626894;28;26010;-44
2022/06/08 10:12:42;;;;;;;;;;;;;;;;;;4514809;28;34564;-46
2022/06/08 10:15:08;;;;;;;;;;;;;;;;;;4579888;28;26252;-44
2022/06/08 10:17:33;;;;;;;;;;;;;;;;;;4568705;28;40846;-44
2022/06/08 10:19:59;;;;;;;;;;;;;;;;;;4682448;28;29775;-44
2022/06/08 10:22:24;;;;;;;;;;;;;;;;;;4679956;28;30546;-44
2022/06/08 10:24:50;;;;;;;;;;;;;;;;;;4700926;28;36404;-44
2022/06/08 10:27:15;;;;;;;;;;;;;;;;;;4724506;28;34593;-45
2022/06/08 10:29:42;;;;;;;;;;;;;;;;;;4710781;28;21613;-45
2022/06/08 10:32:08;;;;;;;;;;;;;;;;;;4712182;28;31702;-45
2022/06/08 10:34:33;;;;;;;;;;;;;;;;;;4685667;28;35258;-44
2022/06/08 10:36:58;;;;;;;;;;;;;;;;;;4633572;28;26159;-44
2022/06/08 10:39:23;;;;;;;;;;;;;;;;;;4568769;28;30228;-45
2022/06/08 10:44:33;;;;;;;;;;;;;;;;;;4576992;28;26970;-45
2022/06/08 10:46:58;;;;;;;;;;;;;;;;;;4589020;28;35252;-45
2022/06/08 10:49:23;;;;;;;;;;;;;;;;;;4671072;28;49079;-45
2022/06/08 10:51:48;;;;;;;;;;;;;;;;;;4681815;28;27406;-45
2022/06/08 10:56:58;;;;;;;;;;;;;;;;;;4679582;28;30854;-46
2022/06/08 10:59:24;;;;;;;;;;;;;;;;;;4668368;28;26639;-45
2022/06/08 11:01:49;;;;;;;;;;;;;;;;;;4594140;28;31764;-45
2022/06/08 11:04:15;;;;;;;;;;;;;;;;;;4607358;28;29257;-42
2022/06/08 11:06:40;;;;;;;;;;;;;;;;;;4700826;28;22324;-46
2022/06/08 11:09:05;;;;;;;;;;;;;;;;;;4726114;28;26723;-44
2022/06/08 11:11:30;;;;;;;;;;;;;;;;;;4712254;28;35336;-44
2022/06/08 11:13:57;;;;;;;;;;;;;;;;;;4815746;28;31310;-45
2022/06/08 11:16:22;;;;;;;;;;;;;;;;;;4803979;28;28855;-47
2022/06/08 11:18:47;;;;;;;;;;;;;;;;;;4800049;28;31580;-46
2022/06/08 11:21:12;;;;;;;;;;;;;;;;;;4802414;28;23472;-45
2022/06/08 11:23:38;;;;;;;;;;;;;;;;;;4779797;28;28745;-45
2022/06/08 11:26:03;;;;;;;;;;;;;;;;;;4782082;28;23342;-44
2022/06/08 11:28:28;;;;;;;;;;;;;;;;;;4741423;28;31747;-45
2022/06/08 11:30:53;;;;;;;;;;;;;;;;;;4677527;28;21760;-46
2022/06/08 11:33:18;;;;;;;;;;;;;;;;;;4620786;28;24110;-47
2022/06/08 11:35:46;;;;;;;;;;;;;;;;;;4660740;28;28171;-44
2022/06/08 11:38:11;;;;;;;;;;;;;;;;;;4762289;28;25409;-46
2022/06/08 11:40:37;;;;;;;;;;;;;;;;;;4797752;28;26385;-45
2022/06/08 11:43:03;;;;;;;;;;;;;;;;;;4841451;28;20019;-45
2022/06/08 11:45:28;;;;;;;;;;;;;;;;;;4857898;28;27988;-44
2022/06/08 11:47:53;;;;;;;;;;;;;;;;;;4866925;28;20604;-45
2022/06/08 11:50:18;;;;;;;;;;;;;;;;;;4854526;28;19921;-45
2022/06/08 11:52:44;;;;;;;;;;;;;;;;;;4851351;28;19927;-44
2022/06/08 11:55:09;;;;;;;;;;;;;;;;;;4806831;28;19970;-46
2022/06/08 11:57:34;;;;;;;;;;;;;;;;;;4810445;28;21653;-45
2022/06/08 11:59:59;;;;;;;;;;;;;;;;;;4853772;28;19927;-44
2022/06/08 12:02:24;;;;;;;;;;;;;;;;;;4878405;28;23238;-45
2022/06/08 12:04:50;;;;;;;;;;;;;;;;;;4860311;28;21453;-43
2022/06/08 12:07:15;;;;;;;;;;;;;;;;;;4856593;28;20535;-45
2022/06/08 12:09:40;;;;;;;;;;;;;;;;;;4865496;28;20092;-44
2022/06/08 12:12:05;;;;;;;;;;;;;;;;;;4868913;28;25817;-45
2022/06/08 12:14:30;;;;;;;;;;;;;;;;;;4891566;28;28650;-45
2022/06/08 12:16:55;;;;;;;;;;;;;;;;;;4834883;28;31806;-46
2022/06/08 12:19:20;;;;;;;;;;;;;;;;;;4819597;28;32541;-45
2022/06/08 12:21:46;;;;;;;;;;;;;;;;;;4656862;28;29324;-46
2022/06/08 12:24:11;;;;;;;;;;;;;;;;;;4611753;28;19970;-44
2022/06/08 12:26:36;;;;;;;;;;;;;;;;;;4666628;28;21857;-44
2022/06/08 12:29:01;;;;;;;;;;;;;;;;;;4728896;28;21439;-45
2022/06/08 12:31:26;;;;;;;;;;;;;;;;;;4814696;28;21005;-44
2022/06/08 12:33:51;;;;;;;;;;;;;;;;;;4836985;28;20024;-44
2022/06/08 12:36:16;;;;;;;;;;;;;;;;;;4863558;28;19925;-46
2022/06/08 12:38:41;;;;;;;;;;;;;;;;;;4874453;28;19920;-44
2022/06/08 12:41:10;;;;;;;;;;;;;;;;;;4868504;28;19922;-45
2022/06/08 12:43:35;;;;;;;;;;;;;;;;;;4878567;28;19924;-44
2022/06/08 12:46:00;;;;;;;;;;;;;;;;;;4847881;28;22349;-44
2022/06/08 12:48:26;;;;;;;;;;;;;;;;;;4879075;28;19921;-45
2022/06/08 12:50:51;;;;;;;;;;;;;;;;;;4851903;28;19920;-45
2022/06/08 12:53:16;;;;;;;;;;;;;;;;;;4876346;28;22075;-44
2022/06/08 12:55:41;;;;;;;;;;;;;;;;;;4881166;28;20062;-45
2022/06/08 12:58:06;;;;;;;;;;;;;;;;;;4861705;28;19927;-44
2022/06/08 13:00:33;;;;;;;;;;;;;;;;;;4885428;28;20551;-45
2022/06/08 13:02:59;;;;;;;;;;;;;;;;;;4884460;28;23130;-45
2022/06/08 13:05:24;;;;;;;;;;;;;;;;;;4891302;28;21077;-44
2022/06/08 13:07:49;;;;;;;;;;;;;;;;;;4882848;28;21443;-45
2022/06/08 13:10:14;;;;;;;;;;;;;;;;;;4812911;28;27892;-45
2022/06/08 13:12:39;;;;;;;;;;;;;;;;;;4734831;28;20836;-45
2022/06/08 13:15:04;;;;;;;;;;;;;;;;;;4800843;28;25375;-44
2022/06/08 13:17:30;;;;;;;;;;;;;;;;;;4873609;28;19973;-44
2022/06/08 13:19:57;;;;;;;;;;;;;;;;;;4911572;28;19984;-44
2022/06/08 13:22:25;;;;;;;;;;;;;;;;;;4951486;28;22301;-44
2022/06/08 13:24:50;;;;;;;;;;;;;;;;;;4976382;28;20642;-44
2022/06/08 13:27:15;;;;;;;;;;;;;;;;;;4977216;28;19921;-44
2022/06/08 13:29:40;;;;;;;;;;;;;;;;;;4981764;28;22019;-44
2022/06/08 13:32:05;;;;;;;;;;;;;;;;;;4978450;28;19920;-44
2022/06/08 13:34:30;;;;;;;;;;;;;;;;;;4993063;28;19936;-44
2022/06/08 13:36:56;;;;;;;;;;;;;;;;;;5007538;28;19913;-46
2022/06/08 13:39:21;;;;;;;;;;;;;;;;;;5004926;28;20635;-44
2022/06/08 13:41:46;;;;;;;;;;;;;;;;;;4985861;28;19921;-45
2022/06/08 13:44:11;;;;;;;;;;;;;;;;;;4990444;28;20647;-44
2022/06/08 13:46:37;;;;;;;;;;;;;;;;;;5004052;28;20601;-43
2022/06/08 13:49:02;;;;;;;;;;;;;;;;;;4998359;28;19928;-44
2022/06/08 13:51:27;;;;;;;;;;;;;;;;;;4994247;28;19944;-45
2022/06/08 13:53:52;;;;;;;;;;;;;;;;;;4980581;28;20521;-44
2022/06/08 13:56:18;;;;;;;;;;;;;;;;;;4968715;28;21103;-44
2022/06/08 13:58:43;;;;;;;;;;;;;;;;;;4952880;28;19920;-45
2022/06/08 14:01:08;;;;;;;;;;;;;;;;;;4957459;28;19920;-45
2022/06/08 14:03:33;;;;;;;;;;;;;;;;;;4925306;28;19932;-45
2022/06/08 14:14:10;;;;;;;;;;;;;;;;;;5022987;28;20725;-44
2022/06/08 14:16:35;;;;;;;;;;;;;;;;;;5026585;28;19997;-44
2022/06/08 14:19:01;;;;;;;;;;;;;;;;;;5038315;28;19921;-44
2022/06/08 14:21:26;;;;;;;;;;;;;;;;;;5038357;28;20259;-44
2022/06/08 14:23:51;;;;;;;;;;;;;;;;;;5039653;28;20298;-44
2022/06/08 14:26:17;;;;;;;;;;;;;;;;;;5038681;28;19920;-44
2022/06/08 14:28:42;;;;;;;;;;;;;;;;;;5035769;28;19924;-44
2022/06/08 14:31:07;;;;;;;;;;;;;;;;;;5034049;28;20415;-45
2022/06/08 14:33:32;;;;;;;;;;;;;;;;;;5036446;28;19936;-45
2022/06/08 14:35:57;;;;;;;;;;;;;;;;;;5041354;28;20042;-44
2022/06/08 14:38:22;;;;;;;;;;;;;;;;;;5042706;28;19928;-45
2022/06/08 14:40:47;;;;;;;;;;;;;;;;;;5046353;28;19919;-45
2022/06/08 14:43:12;;;;;;;;;;;;;;;;;;5053000;28;19920;-45
2022/06/08 14:45:38;;;;;;;;;;;;;;;;;;5046899;28;19921;-44
2022/06/08 14:48:03;;;;;;;;;;;;;;;;;;5036986;28;19990;-44
2022/06/08 14:50:28;;;;;;;;;;;;;;;;;;5045575;28;19916;-44
2022/06/08 14:52:53;;;;;;;;;;;;;;;;;;5039607;28;19916;-44
2022/06/08 14:58:02;;;;;;;;;;;;;;;;;;5047881;28;19939;-44
2022/06/08 15:00:27;;;;;;;;;;;;;;;;;;5054102;28;20383;-45
2022/06/08 15:02:52;;;;;;;;;;;;;;;;;;5059299;28;20371;-45
2022/06/08 15:05:17;;;;;;;;;;;;;;;;;;5058638;28;20009;-45
2022/06/08 15:07:43;;;;;;;;;;;;;;;;;;5057029;28;19916;-44
2022/06/08 15:10:08;;;;;;;;;;;;;;;;;;5060781;28;20385;-44
2022/06/08 15:12:36;;;;;;;;;;;;;;;;;;5058028;28;20016;-44
2022/06/08 15:15:05;;;;;;;;;;;;;;;;;;5052997;28;19912;-44
2022/06/08 15:17:31;;;;;;;;;;;;;;;;;;5057884;28;19913;-44
2022/06/08 15:19:56;;;;;;;;;;;;;;;;;;5056595;28;19920;-45
2022/06/08 15:22:21;;;;;;;;;;;;;;;;;;5052465;28;19913;-44
2022/06/08 15:24:47;;;;;;;;;;;;;;;;;;5060413;28;19917;-44
2022/06/08 15:27:12;;;;;;;;;;;;;;;;;;5056984;28;20317;-44
2022/06/08 15:29:37;;;;;;;;;;;;;;;;;;5059651;28;19964;-44
2022/06/08 15:32:05;;;;;;;;;;;;;;;;;;5061971;28;20591;-45
2022/06/08 15:34:30;;;;;;;;;;;;;;;;;;5059987;28;20003;-44
2022/06/08 15:36:57;;;;;;;;;;;;;;;;;;5057855;28;20443;-45
2022/06/08 15:39:23;;;;;;;;;;;;;;;;;;5059557;28;20003;-45
2022/06/08 15:41:49;;;;;;;;;;;;;;;;;;5060714;28;19912;-44
2022/06/08 15:44:14;;;;;;;;;;;;;;;;;;5057524;28;20389;-44
2022/06/08 15:46:39;;;;;;;;;;;;;;;;;;5057313;28;19916;-45
2022/06/08 15:49:06;;;;;;;;;;;;;;;;;;5056852;28;19908;-45
2022/06/08 15:51:32;;;;;;;;;;;;;;;;;;5063059;28;19916;-44
2022/06/08 15:53:57;;;;;;;;;;;;;;;;;;5051706;28;19969;-45
2022/06/08 15:56:22;;;;;;;;;;;;;;;;;;5054340;28;19913;-44
2022/06/08 15:58:48;;;;;;;;;;;;;;;;;;5058603;28;20051;-44
2022/06/08 16:01:16;;;;;;;;;;;;;;;;;;5063098;28;19938;-45
2022/06/08 16:03:42;;;;;;;;;;;;;;;;;;5054270;28;20014;-45
2022/06/08 16:06:07;;;;;;;;;;;;;;;;;;5059867;28;20039;-46
2022/06/08 16:08:35;;;;;;;;;;;;;;;;;;5060068;28;19913;-45
2022/06/08 16:11:00;;;;;;;;;;;;;;;;;;5064270;28;19927;-45
2022/06/08 16:13:28;;;;;;;;;;;;;;;;;;5060146;28;20011;-45
2022/06/08 16:15:56;;;;;;;;;;;;;;;;;;5058922;28;19995;-46
2022/06/08 16:18:21;;;;;;;;;;;;;;;;;;5054565;28;19913;-42
2022/06/08 16:20:46;;;;;;;;;;;;;;;;;;5051941;28;20432;-44
2022/06/08 16:23:11;;;;;;;;;;;;;;;;;;5053211;28;19970;-44
2022/06/08 16:25:39;;;;;;;;;;;;;;;;;;5054554;28;19920;-48
2022/06/08 16:28:05;;;;;;;;;;;;;;;;;;5056280;28;19913;-44
2022/06/08 16:30:31;;;;;;;;;;;;;;;;;;5055713;28;19919;-45
2022/06/08 16:32:56;;;;;;;;;;;;;;;;;;5057025;28;19928;-46
2022/06/08 16:35:22;;;;;;;;;;;;;;;;;;5054530;28;20266;-45
2022/06/08 16:37:47;;;;;;;;;;;;;;;;;;5061139;28;20259;-44
2022/06/08 16:40:12;;;;;;;;;;;;;;;;;;5056985;28;20316;-45
2022/06/08 16:42:38;;;;;;;;;;;;;;;;;;5059458;28;20384;-45
2022/06/08 16:45:06;;;;;;;;;;;;;;;;;;5049139;28;19931;-44
2022/06/08 16:47:31;;;;;;;;;;;;;;;;;;5055532;28;19999;-45
2022/06/08 16:49:56;;;;;;;;;;;;;;;;;;5059626;28;20006;-47
2022/06/08 16:52:21;;;;;;;;;;;;;;;;;;5059305;28;19921;-45
2022/06/08 16:54:48;;;;;;;;;;;;;;;;;;5061195;28;19920;-45
2022/06/08 16:59:58;;;;;;;;;;;;;;;;;;5058426;28;20062;-44
2022/06/08 17:02:25;;;;;;;;;;;;;;;;;;5056999;28;19919;-45